Time;durP1;ratioP1;P1;durP2;ratioP2;P2;SDS_P1;SDS_P2;PMS_P1;PMS_P2;Temp;Humidity;BMP_temperature;BMP_pressure;BME280_temperature;BME280_humidity;BME280_pressure;Samples;Min_cycle;Max_cycle;Signal;HPM_P1;HPM_P2
2020/12/19 00:01:40;;;;;;;11.10;8.83;;;4.20;94.50;;;;;;5071549;28;20187;-93
2020/12/19 00:04:06;;;;;;;9.83;8.83;;;4.20;94.60;;;;;;5067933;28;20199;-93
2020/12/19 00:06:31;;;;;;;11.17;9.20;;;4.20;94.40;;;;;;5078406;28;20179;-90
2020/12/19 00:08:57;;;;;;;24.33;12.10;;;4.20;94.80;;;;;;5080219;28;20152;-92
2020/12/19 00:11:23;;;;;;;12.67;11.33;;;4.20;94.40;;;;;;5052348;28;20184;-92
2020/12/19 00:13:49;;;;;;;11.43;9.90;;;4.20;94.50;;;;;;5068449;28;20208;-92
2020/12/19 00:16:16;;;;;;;11.97;10.67;;;4.30;94.40;;;;;;5069008;28;20180;-92
2020/12/19 00:18:42;;;;;;;11.07;9.97;;;4.40;93.80;;;;;;5068532;28;20270;-91
2020/12/19 00:21:09;;;;;;;10.83;9.73;;;4.40;93.50;;;;;;5067092;28;20184;-91
2020/12/19 00:23:35;;;;;;;9.67;8.77;;;4.30;93.70;;;;;;5068078;28;20251;-90
2020/12/19 00:26:01;;;;;;;10.97;9.87;;;4.40;93.60;;;;;;5067699;28;20177;-92
2020/12/19 00:28:27;;;;;;;12.00;10.80;;;4.40;93.50;;;;;;5051233;28;20190;-91
2020/12/19 00:30:53;;;;;;;11.67;10.47;;;4.40;93.00;;;;;;5066800;28;20220;-91
2020/12/19 00:33:18;;;;;;;13.07;11.57;;;4.40;93.90;;;;;;5066673;28;20216;-92
2020/12/19 00:35:44;;;;;;;13.83;12.43;;;4.50;93.30;;;;;;5063851;28;20188;-92
2020/12/19 00:38:10;;;;;;;12.23;10.90;;;4.40;93.20;;;;;;5063634;28;20195;-92
2020/12/19 00:40:36;;;;;;;12.30;11.10;;;4.40;93.40;;;;;;5064191;28;20329;-92
2020/12/19 00:43:02;;;;;;;11.57;10.03;;;4.40;93.40;;;;;;5032461;28;20226;-91
2020/12/19 00:45:29;;;;;;;11.10;9.97;;;4.40;93.70;;;;;;5065453;28;20212;-91
2020/12/19 00:47:55;;;;;;;16.37;10.23;;;4.50;93.20;;;;;;5066245;28;20177;-92
2020/12/19 00:50:21;;;;;;;17.30;11.00;;;4.50;92.60;;;;;;5047955;28;20191;-92
2020/12/19 00:52:46;;;;;;;16.63;9.77;;;4.40;93.00;;;;;;5031650;28;20295;-92
2020/12/19 00:55:12;;;;;;;11.10;9.70;;;4.20;93.90;;;;;;5066077;28;20176;-92
2020/12/19 00:57:38;;;;;;;10.53;8.93;;;4.10;95.10;;;;;;5049290;28;20190;-92
2020/12/19 01:00:07;;;;;;;10.23;9.17;;;4.20;94.40;;;;;;5064439;28;20188;-92
2020/12/19 01:02:35;;;;;;;10.80;9.73;;;4.20;94.00;;;;;;5065181;28;20246;-92
2020/12/19 01:05:02;;;;;;;10.07;9.10;;;4.20;94.00;;;;;;5067379;28;20176;-92
2020/12/19 01:07:29;;;;;;;9.80;8.80;;;4.30;94.30;;;;;;5064613;28;20195;-92
2020/12/19 01:09:54;;;;;;;10.23;9.23;;;4.40;93.80;;;;;;5048451;28;20184;-91
2020/12/19 01:12:20;;;;;;;9.90;8.27;;;4.40;93.40;;;;;;5044386;28;20236;-91
2020/12/19 01:14:46;;;;;;;9.33;8.53;;;4.40;92.80;;;;;;5028320;28;20208;-91
2020/12/19 01:17:12;;;;;;;9.43;8.57;;;4.40;93.40;;;;;;5028796;28;20185;-92
2020/12/19 01:19:37;;;;;;;9.67;8.77;;;4.30;92.70;;;;;;5030231;28;20190;-92
2020/12/19 01:22:03;;;;;;;8.97;8.07;;;4.30;93.40;;;;;;5045604;28;20197;-92
2020/12/19 01:24:28;;;;;;;9.73;8.83;;;4.30;94.00;;;;;;5051370;28;20188;-92
2020/12/19 01:26:54;;;;;;;9.07;8.27;;;4.40;93.60;;;;;;5048946;28;20188;-92
2020/12/19 01:29:21;;;;;;;8.10;7.40;;;4.50;93.40;;;;;;5066369;28;20765;-92
2020/12/19 01:31:47;;;;;;;8.93;8.03;;;4.50;92.60;;;;;;5065582;28;20211;-92
2020/12/19 01:34:12;;;;;;;9.03;8.23;;;4.60;92.70;;;;;;5065494;28;20208;-92
2020/12/19 01:36:38;;;;;;;8.90;8.00;;;4.60;92.00;;;;;;5065770;28;20198;-92
2020/12/19 01:39:03;;;;;;;8.60;7.90;;;4.60;91.80;;;;;;5049122;28;20671;-92
2020/12/19 01:41:29;;;;;;;8.87;8.00;;;4.50;92.40;;;;;;5065678;28;20188;-92
2020/12/19 01:43:57;;;;;;;8.77;7.97;;;4.50;92.10;;;;;;5066250;28;20234;-92
2020/12/19 01:46:46;;;;;;;8.50;7.70;;;4.50;92.20;;;;;;5049020;28;20191;-91
2020/12/19 01:49:13;;;;;;;9.33;8.43;;;4.50;92.60;;;;;;5067134;28;20168;-91
2020/12/19 01:51:39;;;;;;;8.90;8.10;;;4.50;92.70;;;;;;5067239;28;20184;-92
2020/12/19 01:54:08;;;;;;;8.80;7.90;;;4.50;92.70;;;;;;5065712;28;20208;-91
2020/12/19 01:56:47;;;;;;;9.40;8.50;;;4.60;93.50;;;;;;5066868;28;20176;-91
2020/12/19 01:59:13;;;;;;;8.47;7.67;;;4.60;92.20;;;;;;5065345;28;20228;-92
2020/12/19 02:01:49;;;;;;;8.40;7.60;;;4.50;92.80;;;;;;5068082;28;20230;-92
2020/12/19 02:04:17;;;;;;;7.53;6.87;;;4.60;92.10;;;;;;5072841;28;20785;-92
2020/12/19 02:06:46;;;;;;;8.47;7.67;;;4.70;92.00;;;;;;5072827;28;20191;-92
2020/12/19 02:09:13;;;;;;;8.00;7.30;;;4.70;92.10;;;;;;5072899;28;20232;-92
2020/12/19 02:11:42;;;;;;;8.83;8.03;;;4.70;91.70;;;;;;5073004;28;20176;-91
2020/12/19 02:14:08;;;;;;;8.43;7.70;;;4.80;91.40;;;;;;5055832;28;20215;-91
2020/12/19 02:16:35;;;;;;;7.83;7.13;;;4.80;91.20;;;;;;5072964;28;20205;-91
2020/12/19 02:19:01;;;;;;;7.90;7.20;;;4.80;91.30;;;;;;5072100;28;20184;-91
2020/12/19 02:21:28;;;;;;;7.93;7.17;;;4.70;91.80;;;;;;5073261;28;20183;-91
2020/12/19 02:23:53;;;;;;;7.43;6.80;;;4.60;91.80;;;;;;5073282;28;20234;-91
2020/12/19 02:26:19;;;;;;;8.03;7.30;;;4.60;92.10;;;;;;5072049;28;20188;-91
2020/12/19 02:28:45;;;;;;;7.77;7.07;;;4.60;92.20;;;;;;5072174;28;20188;-91
2020/12/19 02:31:11;;;;;;;7.83;7.13;;;4.70;92.50;;;;;;5071993;28;20188;-91
2020/12/19 02:33:36;;;;;;;7.90;7.10;;;4.60;92.70;;;;;;5072209;28;20220;-91
2020/12/19 02:36:02;;;;;;;7.27;6.57;;;4.60;92.90;;;;;;5080036;28;20251;-94
2020/12/19 02:38:28;;;;;;;8.03;7.27;;;4.60;92.90;;;;;;5083028;28;20161;-91
2020/12/19 02:40:54;;;;;;;6.87;6.27;;;4.60;93.00;;;;;;5072442;28;20180;-91
2020/12/19 02:43:19;;;;;;;8.43;7.63;;;4.60;92.90;;;;;;5076089;28;20252;-93
2020/12/19 02:45:45;;;;;;;7.03;6.43;;;4.60;92.60;;;;;;5083625;28;20168;-94
2020/12/19 02:48:11;;;;;;;7.63;6.93;;;4.60;92.60;;;;;;5081552;28;20228;-90
2020/12/19 02:50:36;;;;;;;7.40;6.80;;;4.50;93.10;;;;;;5055279;28;20187;-91
2020/12/19 02:53:02;;;;;;;8.40;7.60;;;4.40;93.50;;;;;;5073253;28;20195;-91
2020/12/19 02:55:28;;;;;;;8.33;7.53;;;4.50;93.70;;;;;;5055027;28;20196;-91
2020/12/19 02:57:53;;;;;;;7.60;6.90;;;4.40;93.90;;;;;;5071594;28;20188;-92
2020/12/19 03:00:19;;;;;;;8.33;7.60;;;4.40;94.70;;;;;;5071826;28;20190;-91
2020/12/19 03:02:45;;;;;;;8.43;7.73;;;4.40;94.60;;;;;;5072684;28;20209;-91
2020/12/19 03:05:10;;;;;;;8.03;7.27;;;4.40;94.20;;;;;;5072798;28;20230;-91
2020/12/19 03:07:36;;;;;;;7.80;7.10;;;4.40;95.00;;;;;;5071131;28;20239;-91
2020/12/19 03:10:02;;;;;;;8.27;7.47;;;4.50;94.40;;;;;;5071959;28;20247;-91
2020/12/19 03:12:28;;;;;;;7.70;7.00;;;4.60;93.80;;;;;;5071703;28;20296;-90
2020/12/19 03:14:54;;;;;;;7.63;6.93;;;4.60;93.60;;;;;;5068585;28;20204;-91
2020/12/19 03:17:19;;;;;;;7.83;7.13;;;4.60;93.20;;;;;;5068687;28;20566;-92
2020/12/19 03:19:45;;;;;;;8.07;7.37;;;4.50;93.20;;;;;;5052018;28;20195;-91
2020/12/19 03:22:11;;;;;;;8.23;7.50;;;4.50;93.60;;;;;;5068579;28;20196;-91
2020/12/19 03:24:36;;;;;;;7.10;6.50;;;4.40;93.90;;;;;;5069916;28;20187;-91
2020/12/19 03:27:02;;;;;;;8.00;7.30;;;4.40;94.10;;;;;;5052901;28;20262;-92
2020/12/19 03:29:28;;;;;;;8.00;7.07;;;4.30;94.30;;;;;;5067960;28;20192;-92
2020/12/19 03:31:54;;;;;;;7.73;6.93;;;4.30;94.80;;;;;;5068928;28;20199;-92
2020/12/19 03:34:19;;;;;;;6.93;6.33;;;4.20;94.20;;;;;;5067737;28;20215;-92
2020/12/19 03:36:45;;;;;;;7.07;6.47;;;4.30;94.30;;;;;;5069340;28;20255;-92
2020/12/19 03:39:11;;;;;;;7.53;6.83;;;4.50;93.20;;;;;;5051239;28;20183;-92
2020/12/19 03:41:36;;;;;;;7.40;6.70;;;4.50;92.90;;;;;;5068363;28;20180;-92
2020/12/19 03:44:02;;;;;;;7.63;6.87;;;4.60;92.80;;;;;;5068498;28;20187;-92
2020/12/19 03:46:28;;;;;;;7.17;6.53;;;4.50;93.20;;;;;;5051626;28;20188;-92
2020/12/19 03:48:54;;;;;;;6.93;6.33;;;4.50;92.30;;;;;;5051495;28;20276;-92
2020/12/19 03:51:19;;;;;;;7.40;6.80;;;4.60;91.90;;;;;;5051942;28;20188;-91
2020/12/19 03:53:45;;;;;;;6.60;6.00;;;4.60;91.70;;;;;;5051060;28;20216;-92
2020/12/19 03:56:11;;;;;;;7.07;6.47;;;4.50;91.70;;;;;;5051516;28;20275;-92
2020/12/19 03:58:36;;;;;;;7.00;6.40;;;4.50;91.80;;;;;;5051426;28;20196;-91
2020/12/19 04:01:02;;;;;;;7.47;6.77;;;4.60;91.30;;;;;;5050851;28;20230;-91
2020/12/19 04:03:28;;;;;;;6.43;5.83;;;4.50;91.10;;;;;;5067571;28;20204;-92
2020/12/19 04:05:54;;;;;;;7.43;6.70;;;4.60;90.60;;;;;;5051060;28;20208;-92
2020/12/19 04:08:19;;;;;;;7.47;6.77;;;4.60;90.60;;;;;;5067491;28;20206;-91
2020/12/19 04:10:45;;;;;;;6.90;6.30;;;4.50;90.60;;;;;;5067740;28;20188;-91
2020/12/19 04:13:11;;;;;;;6.73;6.13;;;4.40;90.40;;;;;;5067314;28;20204;-92
2020/12/19 04:15:36;;;;;;;7.73;6.93;;;4.40;90.40;;;;;;5067870;28;20214;-91
2020/12/19 04:18:02;;;;;;;7.40;6.70;;;4.40;90.40;;;;;;5067676;28;20199;-91
2020/12/19 04:20:28;;;;;;;7.27;6.67;;;4.30;90.40;;;;;;5067794;28;20204;-91
2020/12/19 04:22:54;;;;;;;8.33;7.53;;;4.30;90.50;;;;;;5051045;28;20280;-93
2020/12/19 04:25:19;;;;;;;7.67;6.87;;;4.30;90.80;;;;;;5050825;28;20255;-91
2020/12/19 04:27:45;;;;;;;7.83;7.13;;;4.30;90.30;;;;;;5068805;28;20184;-91
2020/12/19 04:30:11;;;;;;;7.80;7.13;;;4.30;90.60;;;;;;5067263;28;20184;-92
2020/12/19 04:32:37;;;;;;;8.97;8.07;;;4.30;90.60;;;;;;5067573;28;20613;-91
2020/12/19 04:35:04;;;;;;;9.17;8.03;;;4.30;90.00;;;;;;5067333;28;20211;-91
2020/12/19 04:37:30;;;;;;;15.30;8.57;;;4.10;89.90;;;;;;5067067;28;20199;-92
2020/12/19 04:39:56;;;;;;;24.73;8.03;;;4.00;89.90;;;;;;5050572;28;20191;-92
2020/12/19 04:42:23;;;;;;;10.20;7.13;;;3.90;90.40;;;;;;5066951;28;20204;-92
2020/12/19 04:44:49;;;;;;;12.73;7.70;;;3.80;90.90;;;;;;5050601;28;20191;-92
2020/12/19 04:47:15;;;;;;;15.07;7.57;;;3.70;91.00;;;;;;5068513;28;20663;-90
2020/12/19 04:49:45;;;;;;;8.30;7.27;;;3.70;91.90;;;;;;5050643;28;20188;-92
2020/12/19 04:52:12;;;;;;;8.57;7.87;;;3.60;92.00;;;;;;5066917;28;20211;-93
2020/12/19 04:54:38;;;;;;;7.50;6.80;;;3.60;92.70;;;;;;5066667;28;20216;-91
2020/12/19 04:57:04;;;;;;;8.43;7.63;;;3.70;93.30;;;;;;5066885;28;20188;-92
2020/12/19 04:59:30;;;;;;;9.73;7.43;;;3.70;92.80;;;;;;5049732;28;20184;-91
2020/12/19 05:01:56;;;;;;;8.70;7.90;;;3.70;91.10;;;;;;5068000;28;20757;-92
2020/12/19 05:04:23;;;;;;;7.57;6.87;;;3.70;91.40;;;;;;5066799;28;20187;-91
2020/12/19 05:06:49;;;;;;;7.80;6.80;;;3.60;91.40;;;;;;5050177;28;20291;-91
2020/12/19 05:09:15;;;;;;;8.13;7.33;;;3.70;91.30;;;;;;5049479;28;20188;-91
2020/12/19 05:11:41;;;;;;;7.80;7.10;;;3.60;89.50;;;;;;5050291;28;20204;-91
2020/12/19 05:14:07;;;;;;;7.43;6.73;;;3.60;90.40;;;;;;5070107;28;20220;-95
2020/12/19 05:16:34;;;;;;;7.40;6.70;;;3.60;90.10;;;;;;5078116;28;20196;-93
2020/12/19 05:19:08;;;;;;;8.73;7.83;;;3.60;90.90;;;;;;5069185;28;20189;-91
2020/12/19 05:21:44;;;;;;;6.90;6.30;;;3.60;90.10;;;;;;5050642;28;20196;-92
2020/12/19 05:24:16;;;;;;;9.23;7.10;;;3.60;90.80;;;;;;5077593;28;20176;-94
2020/12/19 05:26:43;;;;;;;7.27;6.57;;;3.60;88.90;;;;;;5077853;28;20188;-93
2020/12/19 05:29:10;;;;;;;7.63;6.87;;;3.60;89.50;;;;;;5068232;28;20299;-91
2020/12/19 05:31:35;;;;;;;7.23;6.53;;;3.60;89.60;;;;;;5051075;28;20188;-91
2020/12/19 05:34:01;;;;;;;7.30;6.63;;;3.70;89.80;;;;;;5066551;28;20307;-93
2020/12/19 05:36:30;;;;;;;6.90;6.30;;;3.60;88.50;;;;;;5065526;28;20207;-92
2020/12/19 05:39:05;;;;;;;6.90;6.20;;;3.70;89.70;;;;;;5050710;28;20257;-90
2020/12/19 05:41:31;;;;;;;7.07;6.40;;;3.60;88.40;;;;;;5067394;28;20168;-91
2020/12/19 05:43:56;;;;;;;7.13;6.43;;;3.50;88.30;;;;;;5049351;28;20211;-91
2020/12/19 05:46:39;;;;;;;7.93;7.23;;;3.30;89.00;;;;;;5049485;28;20180;-91
2020/12/19 05:49:07;;;;;;;7.07;6.27;;;3.30;89.50;;;;;;5049629;28;20175;-90
2020/12/19 05:51:35;;;;;;;7.23;6.53;;;3.30;89.20;;;;;;5049667;28;20180;-90
2020/12/19 05:54:02;;;;;;;7.40;6.70;;;3.40;89.10;;;;;;5067540;28;20200;-91
2020/12/19 05:56:33;;;;;;;7.63;6.33;;;3.30;88.10;;;;;;5066104;28;20176;-90
2020/12/19 05:59:01;;;;;;;6.57;5.97;;;3.20;89.60;;;;;;5065938;28;20177;-91
2020/12/19 06:01:27;;;;;;;7.07;6.37;;;3.20;89.60;;;;;;5066058;28;20191;-91
2020/12/19 06:03:55;;;;;;;7.97;7.17;;;3.30;89.90;;;;;;5049364;28;20188;-91
2020/12/19 06:06:24;;;;;;;6.53;6.00;;;3.30;89.10;;;;;;5049219;28;20234;-92
2020/12/19 06:08:49;;;;;;;7.10;5.90;;;3.30;90.00;;;;;;5066649;28;20160;-91
2020/12/19 06:11:20;;;;;;;6.43;5.83;;;3.30;90.00;;;;;;5066777;28;20206;-90
2020/12/19 06:13:51;;;;;;;12.70;9.40;;;3.20;90.70;;;;;;5049055;28;20218;-92
2020/12/19 06:16:17;;;;;;;22.90;16.27;;;3.20;91.00;;;;;;5065774;28;20215;-91
2020/12/19 06:18:53;;;;;;;11.40;9.40;;;3.20;91.30;;;;;;5066477;28;20196;-91
2020/12/19 06:21:20;;;;;;;12.30;9.77;;;3.20;91.10;;;;;;5065838;28;20175;-92
2020/12/19 06:23:46;;;;;;;7.87;7.17;;;3.30;91.80;;;;;;5064832;28;20205;-92
2020/12/19 06:26:13;;;;;;;15.10;13.50;;;3.20;91.00;;;;;;5065755;28;20184;-91
2020/12/19 06:28:42;;;;;;;14.13;8.23;;;3.30;91.50;;;;;;5066698;28;20179;-91
2020/12/19 06:31:21;;;;;;;22.30;10.07;;;3.20;91.40;;;;;;5072091;28;20215;-90
2020/12/19 06:33:54;;;;;;;10.43;7.90;;;3.20;92.00;;;;;;5085302;28;20227;-90
2020/12/19 06:36:28;;;;;;;20.63;12.40;;;3.10;92.10;;;;;;5085676;28;20244;-90
2020/12/19 06:38:56;;;;;;;10.17;9.17;;;3.10;92.40;;;;;;5079031;28;20267;-92
2020/12/19 06:41:43;;;;;;;9.77;8.83;;;3.10;93.00;;;;;;5083916;28;20312;-91
2020/12/19 06:44:12;;;;;;;12.00;9.40;;;3.10;92.80;;;;;;5059531;28;20191;-90
2020/12/19 06:46:38;;;;;;;8.13;7.33;;;3.10;92.00;;;;;;5079252;28;20188;-90
2020/12/19 06:49:22;;;;;;;9.17;8.27;;;3.20;92.50;;;;;;5061887;28;20209;-91
2020/12/19 06:52:12;;;;;;;8.13;7.33;;;3.20;91.70;;;;;;5065642;28;20209;-92
2020/12/19 06:54:46;;;;;;;8.80;7.07;;;3.20;91.20;;;;;;5049919;28;20204;-91
2020/12/19 06:57:32;;;;;;;6.97;6.30;;;3.30;90.20;;;;;;5058291;28;20171;-91
2020/12/19 07:00:24;;;;;;;32.70;24.30;;;3.30;89.30;;;;;;5059674;28;20277;-90
2020/12/19 07:02:50;;;;;;;8.30;6.97;;;3.20;89.50;;;;;;5069528;28;20196;-91
2020/12/19 07:05:24;;;;;;;9.40;6.83;;;3.20;89.40;;;;;;5066623;28;20176;-91
2020/12/19 07:07:52;;;;;;;9.07;8.17;;;3.20;89.40;;;;;;5069273;28;20667;-91
2020/12/19 07:10:34;;;;;;;11.20;9.87;;;3.10;89.80;;;;;;5068323;28;20184;-91
2020/12/19 07:13:00;;;;;;;8.43;7.63;;;3.10;89.30;;;;;;5072066;28;20225;-91
2020/12/19 07:15:50;;;;;;;10.63;6.80;;;3.10;89.60;;;;;;5072234;28;20179;-91
2020/12/19 07:18:33;;;;;;;6.83;6.17;;;3.00;88.10;;;;;;5087649;28;20175;-88
2020/12/19 07:21:10;;;;;;;7.33;6.63;;;3.00;89.10;;;;;;5084275;28;20176;-89
2020/12/19 07:23:37;;;;;;;11.40;10.23;;;3.00;89.00;;;;;;5068638;28;20215;-88
2020/12/19 07:26:05;;;;;;;12.50;11.20;;;3.00;89.40;;;;;;5068783;28;20195;-88
2020/12/19 07:28:31;;;;;;;10.30;9.30;;;3.00;88.70;;;;;;5067010;28;20188;-88
2020/12/19 07:30:57;;;;;;;9.30;8.50;;;2.90;90.00;;;;;;5067925;28;20172;-90
2020/12/19 07:33:23;;;;;;;8.87;7.97;;;3.00;90.20;;;;;;5068327;28;20258;-88
2020/12/19 07:35:49;;;;;;;9.27;8.37;;;3.10;90.50;;;;;;5069656;28;20172;-88
2020/12/19 07:38:15;;;;;;;10.33;8.83;;;3.00;90.00;;;;;;5069552;28;20238;-88
2020/12/19 07:40:40;;;;;;;8.43;7.63;;;3.10;90.30;;;;;;5068108;28;20181;-88
2020/12/19 07:43:08;;;;;;;7.83;7.13;;;3.20;90.10;;;;;;5068777;28;20208;-88
2020/12/19 07:45:35;;;;;;;8.67;7.80;;;3.20;88.80;;;;;;5051133;28;20176;-88
2020/12/19 07:48:01;;;;;;;9.77;7.60;;;3.20;87.10;;;;;;5067225;28;20180;-88
2020/12/19 07:50:31;;;;;;;8.13;7.33;;;3.10;87.80;;;;;;5068485;28;20240;-88
2020/12/19 07:53:05;;;;;;;7.43;6.73;;;3.10;88.70;;;;;;5067750;28;20220;-88
2020/12/19 07:55:32;;;;;;;7.47;6.77;;;3.20;87.60;;;;;;5070153;28;20164;-86
2020/12/19 07:57:59;;;;;;;7.00;6.40;;;3.10;87.60;;;;;;5078977;28;20267;-90
2020/12/19 08:00:26;;;;;;;7.50;6.80;;;3.10;87.70;;;;;;5070755;28;20243;-90
2020/12/19 08:02:52;;;;;;;7.40;6.57;;;2.80;86.90;;;;;;5073907;28;20204;-90
2020/12/19 08:05:19;;;;;;;7.50;6.80;;;2.80;88.40;;;;;;5091618;28;20164;-88
2020/12/19 08:07:51;;;;;;;8.47;7.60;;;2.80;89.40;;;;;;5098992;28;20187;-88
2020/12/19 08:10:16;;;;;;;10.50;8.70;;;2.90;89.50;;;;;;5070965;28;20176;-89
2020/12/19 08:12:42;;;;;;;9.27;8.37;;;3.00;89.30;;;;;;5067094;28;20273;-89
2020/12/19 08:15:16;;;;;;;9.63;8.67;;;3.00;89.70;;;;;;5066846;28;20264;-89
2020/12/19 08:17:54;;;;;;;8.70;7.90;;;3.00;89.60;;;;;;5081670;28;20263;-88
2020/12/19 08:20:26;;;;;;;8.67;7.87;;;3.10;89.10;;;;;;5063187;28;20196;-88
2020/12/19 08:22:54;;;;;;;8.17;7.30;;;3.20;88.90;;;;;;5067437;28;20195;-87
2020/12/19 08:25:21;;;;;;;8.57;7.77;;;3.20;89.00;;;;;;5075549;28;20263;-88
2020/12/19 08:27:47;;;;;;;10.80;9.70;;;3.20;89.10;;;;;;5077175;28;20199;-88
2020/12/19 08:30:27;;;;;;;9.77;8.83;;;3.20;88.60;;;;;;5082966;28;20184;-87
2020/12/19 08:32:58;;;;;;;9.40;8.50;;;3.20;88.30;;;;;;5078865;28;20200;-87
2020/12/19 08:35:32;;;;;;;10.67;9.57;;;3.20;88.70;;;;;;5071458;28;20200;-88
2020/12/19 08:38:09;;;;;;;11.80;10.00;;;3.30;88.70;;;;;;5068012;28;20172;-88
2020/12/19 08:40:56;;;;;;;12.53;10.43;;;3.30;89.70;;;;;;5067741;28;20173;-87
2020/12/19 08:43:34;;;;;;;10.60;9.23;;;3.40;89.70;;;;;;5067118;28;20192;-87
2020/12/19 08:46:09;;;;;;;10.10;8.80;;;3.50;90.10;;;;;;5068919;28;20228;-88
2020/12/19 08:48:35;;;;;;;12.93;9.97;;;3.40;89.90;;;;;;5051437;28;20184;-87
2020/12/19 08:51:10;;;;;;;8.87;7.93;;;3.50;90.10;;;;;;5070536;28;20275;-87
2020/12/19 08:53:36;;;;;;;9.63;8.73;;;3.50;90.30;;;;;;5064605;28;20210;-87
2020/12/19 08:56:17;;;;;;;9.40;8.57;;;3.60;89.80;;;;;;5073854;28;20199;-87
2020/12/19 08:58:55;;;;;;;8.83;8.03;;;3.70;89.90;;;;;;5071885;28;20171;-86
2020/12/19 09:01:21;;;;;;;10.43;9.43;;;3.70;89.70;;;;;;5084415;28;20183;-87
2020/12/19 09:03:47;;;;;;;10.27;8.93;;;3.80;89.40;;;;;;5080636;28;20207;-87
2020/12/19 09:06:14;;;;;;;19.77;17.60;;;3.80;89.80;;;;;;5065672;28;20270;-87
2020/12/19 09:08:41;;;;;;;21.47;18.73;;;3.90;90.10;;;;;;5064921;28;20200;-87
2020/12/19 09:11:24;;;;;;;17.00;14.93;;;3.90;90.40;;;;;;5063827;28;20180;-87
2020/12/19 09:14:02;;;;;;;15.83;14.13;;;4.10;90.30;;;;;;5062786;28;20204;-87
2020/12/19 09:16:28;;;;;;;12.87;11.57;;;4.10;90.70;;;;;;5062734;28;20176;-88
2020/12/19 09:18:53;;;;;;;11.47;10.27;;;4.00;92.70;;;;;;5062447;28;20184;-87
2020/12/19 09:21:19;;;;;;;12.00;10.80;;;4.00;93.40;;;;;;5046728;28;20647;-87
2020/12/19 09:23:45;;;;;;;12.10;10.87;;;4.10;92.90;;;;;;5065144;28;20287;-86
2020/12/19 09:26:10;;;;;;;11.47;10.33;;;4.20;92.80;;;;;;5064339;28;20271;-87
2020/12/19 09:28:36;;;;;;;11.00;9.90;;;4.20;93.60;;;;;;5064396;28;20230;-89
2020/12/19 09:31:02;;;;;;;10.30;9.30;;;4.20;94.50;;;;;;5047034;28;20204;-89
2020/12/19 09:33:28;;;;;;;15.77;14.20;;;4.30;94.90;;;;;;5046669;28;20211;-88
2020/12/19 09:35:54;;;;;;;10.70;9.60;;;4.50;93.50;;;;;;5064627;28;20176;-86
2020/12/19 09:38:20;;;;;;;9.30;8.27;;;4.50;94.00;;;;;;5064198;28;20624;-88
2020/12/19 09:40:46;;;;;;;9.50;8.60;;;4.30;94.50;;;;;;5064780;28;20187;-88
2020/12/19 09:43:12;;;;;;;10.10;9.10;;;4.30;95.50;;;;;;5063609;28;20204;-88
2020/12/19 09:45:38;;;;;;;9.43;8.57;;;4.20;96.80;;;;;;5074709;28;20207;-88
2020/12/19 09:48:05;;;;;;;8.77;7.97;;;4.30;96.70;;;;;;5076236;28;20205;-87
2020/12/19 09:50:31;;;;;;;9.60;8.70;;;4.40;97.00;;;;;;5062215;28;20180;-88
2020/12/19 09:52:57;;;;;;;8.00;7.30;;;4.30;96.90;;;;;;5073922;28;20215;-88
2020/12/19 09:55:23;;;;;;;9.30;8.40;;;4.50;96.50;;;;;;5078451;28;20214;-88
2020/12/19 09:57:49;;;;;;;9.90;8.90;;;4.70;95.20;;;;;;5079926;28;20207;-89
2020/12/19 10:00:16;;;;;;;9.87;8.87;;;4.70;94.40;;;;;;5082689;28;20184;-89
2020/12/19 10:02:43;;;;;;;11.30;9.33;;;4.60;95.40;;;;;;5074645;28;20204;-88
2020/12/19 10:05:09;;;;;;;10.53;9.50;;;4.50;96.10;;;;;;5061286;28;20188;-85
2020/12/19 10:07:36;;;;;;;11.37;9.17;;;4.50;96.80;;;;;;5060322;28;20196;-86
2020/12/19 10:10:06;;;;;;;11.40;10.40;;;4.60;96.70;;;;;;5060114;28;20181;-87
2020/12/19 10:12:33;;;;;;;11.10;10.10;;;4.70;96.40;;;;;;5061578;28;20326;-86
2020/12/19 10:14:58;;;;;;;12.67;10.47;;;4.80;96.70;;;;;;5059998;28;20208;-84
2020/12/19 10:17:24;;;;;;;12.03;10.93;;;5.10;97.30;;;;;;5062543;28;20188;-88
2020/12/19 10:19:50;;;;;;;12.17;10.97;;;5.10;97.10;;;;;;5064362;28;20243;-89
2020/12/19 10:22:17;;;;;;;12.53;11.40;;;5.10;96.70;;;;;;5064727;28;20595;-88
2020/12/19 10:24:42;;;;;;;12.93;11.73;;;5.20;96.40;;;;;;5067641;28;20180;-88
2020/12/19 10:27:08;;;;;;;14.17;12.67;;;5.00;97.50;;;;;;5066363;28;20204;-88
2020/12/19 10:29:35;;;;;;;12.67;11.47;;;5.10;97.90;;;;;;5067869;28;20184;-88
2020/12/19 10:32:06;;;;;;;11.83;10.73;;;5.00;98.60;;;;;;5066849;28;20222;-88
2020/12/19 10:34:31;;;;;;;11.07;10.07;;;5.20;96.50;;;;;;5079689;28;20203;-89
2020/12/19 10:36:57;;;;;;;12.00;10.90;;;5.20;97.00;;;;;;5082232;28;20192;-91
2020/12/19 10:39:24;;;;;;;11.47;10.37;;;5.20;96.60;;;;;;5076540;28;20180;-88
2020/12/19 10:41:50;;;;;;;10.43;9.47;;;5.20;96.40;;;;;;5068014;28;20222;-88
2020/12/19 10:44:16;;;;;;;11.13;10.10;;;5.30;96.30;;;;;;5072979;28;20160;-93
2020/12/19 10:46:42;;;;;;;11.10;10.10;;;5.40;95.90;;;;;;5080316;28;20152;-92
2020/12/19 10:49:08;;;;;;;10.87;9.97;;;5.60;95.40;;;;;;5075014;28;20195;-86
2020/12/19 10:51:34;;;;;;;20.63;10.40;;;5.90;92.90;;;;;;5063275;28;20185;-87
2020/12/19 10:53:59;;;;;;;12.50;11.37;;;6.00;92.00;;;;;;5066878;28;20575;-85
2020/12/19 10:56:25;;;;;;;11.37;10.37;;;6.00;92.90;;;;;;5067844;28;20190;-87
2020/12/19 10:58:51;;;;;;;12.43;11.43;;;6.00;92.70;;;;;;5078159;28;20184;-87
2020/12/19 11:01:17;;;;;;;19.30;12.07;;;5.90;93.70;;;;;;5087788;28;20175;-87
2020/12/19 11:03:44;;;;;;;13.60;11.70;;;5.90;94.30;;;;;;5064978;28;20208;-88
2020/12/19 11:06:23;;;;;;;30.03;12.73;;;5.90;94.50;;;;;;5063149;28;20275;-86
2020/12/19 11:08:50;;;;;;;12.60;11.43;;;5.90;95.10;;;;;;5065785;28;20203;-87
2020/12/19 11:11:20;;;;;;;13.47;12.07;;;6.00;95.00;;;;;;5029946;28;20184;-86
2020/12/19 11:13:47;;;;;;;13.40;12.10;;;6.20;93.40;;;;;;5058687;28;20208;-87
2020/12/19 11:16:29;;;;;;;15.47;14.00;;;6.50;93.50;;;;;;5066884;28;20184;-87
2020/12/19 11:18:56;;;;;;;14.83;13.43;;;6.50;93.00;;;;;;5066494;28;20266;-86
2020/12/19 11:21:22;;;;;;;12.80;11.60;;;6.40;93.50;;;;;;5066991;28;20206;-86
2020/12/19 11:23:48;;;;;;;11.57;10.57;;;6.60;93.10;;;;;;5065857;28;20196;-87
2020/12/19 11:26:18;;;;;;;12.37;11.07;;;7.00;90.90;;;;;;5065999;28;20214;-89
2020/12/19 11:28:48;;;;;;;11.50;10.60;;;7.10;90.80;;;;;;5067293;28;20184;-85
2020/12/19 11:31:15;;;;;;;12.23;11.10;;;7.40;89.20;;;;;;5066652;28;20211;-86
2020/12/19 11:33:41;;;;;;;10.67;9.73;;;7.30;88.50;;;;;;5065446;28;20243;-87
2020/12/19 11:36:06;;;;;;;11.00;9.90;;;7.60;86.80;;;;;;5064673;28;20176;-88
2020/12/19 11:38:32;;;;;;;10.47;9.57;;;7.60;85.60;;;;;;5066459;28;20204;-86
2020/12/19 11:40:58;;;;;;;10.53;9.40;;;7.20;89.50;;;;;;5065389;28;20552;-87
2020/12/19 11:43:23;;;;;;;10.33;9.43;;;7.30;88.90;;;;;;5063855;28;20580;-87
2020/12/19 11:45:49;;;;;;;11.10;10.10;;;7.50;88.80;;;;;;5065645;28;20276;-86
2020/12/19 11:48:16;;;;;;;11.93;10.60;;;8.00;85.80;;;;;;5070172;28;20179;-89
2020/12/19 11:50:41;;;;;;;11.43;10.33;;;8.10;85.60;;;;;;5067641;28;20207;-88
2020/12/19 11:53:07;;;;;;;11.07;10.03;;;8.20;85.00;;;;;;5066261;28;20200;-90
2020/12/19 11:55:33;;;;;;;11.33;10.33;;;8.30;85.20;;;;;;5066114;28;20184;-87
2020/12/19 11:57:59;;;;;;;11.10;10.10;;;8.40;83.90;;;;;;5065867;28;20176;-89
2020/12/19 12:00:24;;;;;;;11.87;10.90;;;8.00;86.50;;;;;;5065605;28;20185;-86
2020/12/19 12:02:50;;;;;;;12.37;11.27;;;8.10;85.20;;;;;;5078493;28;20305;-90
2020/12/19 12:05:16;;;;;;;12.40;11.30;;;8.00;86.50;;;;;;5064231;28;20287;-91
2020/12/19 12:07:42;;;;;;;13.33;11.93;;;8.20;85.90;;;;;;5062960;28;20200;-91
2020/12/19 12:10:08;;;;;;;13.67;12.37;;;8.10;86.80;;;;;;5064968;28;20275;-91
2020/12/19 12:12:56;;;;;;;12.07;10.87;;;8.00;87.30;;;;;;5066590;22;20253;-94
2020/12/19 12:15:35;;;;;;;12.77;11.67;;;7.90;88.20;;;;;;5024096;28;20264;-95
2020/12/19 12:18:36;;;;;;;11.73;10.73;;;8.00;88.40;;;;;;5019362;28;20883;-94
2020/12/19 12:24:01;;;;;;;12.37;11.17;;;8.80;83.30;;;;;;5030061;28;20569;-92
2020/12/19 12:26:40;;;;;;;10.77;9.77;;;8.70;83.90;;;;;;5023114;28;20204;-92
2020/12/19 12:29:18;;;;;;;14.10;12.67;;;8.60;84.60;;;;;;5023391;28;20548;-92
2020/12/19 12:32:07;;;;;;;12.77;11.57;;;8.90;84.20;;;;;;5022927;28;20665;-92
2020/12/19 12:34:42;;;;;;;13.30;11.93;;;8.70;83.00;;;;;;5007321;28;20222;-93
2020/12/19 12:37:34;;;;;;;12.13;11.13;;;9.10;82.60;;;;;;5005301;28;20201;-92
2020/12/19 12:40:02;;;;;;;16.40;11.90;;;9.40;80.80;;;;;;5011652;28;20322;-92
2020/12/19 12:42:33;;;;;;;17.97;12.13;;;9.20;81.30;;;;;;5031884;28;20197;-92
2020/12/19 12:45:30;;;;;;;13.53;12.23;;;9.00;82.00;;;;;;5043574;28;20196;-92
2020/12/19 12:47:56;;;;;;;12.70;11.50;;;8.70;84.90;;;;;;5014737;28;20764;-92
2020/12/19 12:50:53;;;;;;;;;;;;;;;;;;;;;
2020/12/19 12:53:25;;;;;;;19.30;12.30;;;8.30;87.00;;;;;;5005304;28;20246;-92
2020/12/19 12:55:52;;;;;;;12.53;11.37;;;8.40;86.20;;;;;;5018972;28;20169;-91
2020/12/19 12:58:19;;;;;;;12.03;11.03;;;8.40;86.90;;;;;;5044229;28;20241;-93
2020/12/19 13:00:48;;;;;;;13.37;12.07;;;8.40;87.90;;;;;;5027630;28;20188;-94